sensor_id;sensor_type;location;lat;lon;timestamp;pressure;altitude;pressure_sealevel;temperature;humidity
11856;BME280;5987;53.140;8.904;2023-05-23T00:02:27;101415.63;;;13.23;100.00
11856;BME280;5987;53.140;8.904;2023-05-23T00:05:31;101414.47;;;13.30;100.00
11856;BME280;5987;53.140;8.904;2023-05-23T00:08:36;101415.28;;;13.32;100.00
11856;BME280;5987;53.140;8.904;2023-05-23T00:11:40;101417.88;;;13.33;100.00
11856;BME280;5987;53.140;8.904;2023-05-23T00:14:46;101412.81;;;13.27;100.00
11856;BME280;5987;53.140;8.904;2023-05-23T00:17:50;101410.38;;;13.23;100.00
11856;BME280;5987;53.140;8.904;2023-05-23T00:20:54;101410.25;;;13.26;100.00
11856;BME280;5987;53.140;8.904;2023-05-23T00:23:59;101413.91;;;13.21;100.00
11856;BME280;5987;53.140;8.904;2023-05-23T00:27:05;101397.44;;;13.16;100.00
11856;BME280;5987;53.140;8.904;2023-05-23T00:30:10;101402.06;;;13.10;100.00
11856;BME280;5987;53.140;8.904;2023-05-23T00:33:13;101399.38;;;13.11;100.00
11856;BME280;5987;53.140;8.904;2023-05-23T00:36:17;101405.81;;;13.04;100.00
11856;BME280;5987;53.140;8.904;2023-05-23T00:39:22;101404.31;;;12.97;100.00
11856;BME280;5987;53.140;8.904;2023-05-23T00:42:26;101403.31;;;12.99;100.00
11856;BME280;5987;53.140;8.904;2023-05-23T00:45:29;101411.91;;;13.04;100.00
11856;BME280;5987;53.140;8.904;2023-05-23T00:48:33;101404.31;;;12.97;100.00
11856;BME280;5987;53.140;8.904;2023-05-23T00:51:39;101410.44;;;12.97;100.00
11856;BME280;5987;53.140;8.904;2023-05-23T00:54:45;101404.31;;;12.97;100.00
11856;BME280;5987;53.140;8.904;2023-05-23T00:57:50;101407.88;;;12.96;100.00
11856;BME280;5987;53.140;8.904;2023-05-23T01:00:57;101401.75;;;12.95;100.00
11856;BME280;5987;53.140;8.904;2023-05-23T01:04:01;101402.13;;;13.08;100.00
11856;BME280;5987;53.140;8.904;2023-05-23T01:07:06;101392.63;;;13.04;100.00
11856;BME280;5987;53.140;8.904;2023-05-23T01:10:12;101387.78;;;13.15;100.00
11856;BME280;5987;53.140;8.904;2023-05-23T01:13:25;101388.56;;;13.17;100.00
11856;BME280;5987;53.140;8.904;2023-05-23T01:16:43;101372.59;;;13.22;100.00
11856;BME280;5987;53.140;8.904;2023-05-23T01:20:04;101373.09;;;13.32;100.00
11856;BME280;5987;53.140;8.904;2023-05-23T01:23:47;101360.31;;;13.21;100.00
11856;BME280;5987;53.140;8.904;2023-05-23T01:27:08;101361.03;;;13.25;100.00
11856;BME280;5987;53.140;8.904;2023-05-23T01:30:24;101360.44;;;13.18;100.00
11856;BME280;5987;53.140;8.904;2023-05-23T01:33:31;101360.38;;;13.19;100.00
11856;BME280;5987;53.140;8.904;2023-05-23T01:36:40;101351.72;;;13.16;100.00
11856;BME280;5987;53.140;8.904;2023-05-23T01:39:44;101355.28;;;13.15;100.00
11856;BME280;5987;53.140;8.904;2023-05-23T01:42:48;101368.78;;;13.07;100.00
11856;BME280;5987;53.140;8.904;2023-05-23T01:45:55;101360.00;;;13.07;100.00
11856;BME280;5987;53.140;8.904;2023-05-23T01:49:00;101365.94;;;13.12;100.00
11856;BME280;5987;53.140;8.904;2023-05-23T01:52:07;101360.78;;;13.09;100.00
11856;BME280;5987;53.140;8.904;2023-05-23T01:55:15;101361.91;;;13.03;100.00
11856;BME280;5987;53.140;8.904;2023-05-23T01:58:24;101364.53;;;13.03;100.00
11856;BME280;5987;53.140;8.904;2023-05-23T02:01:29;101364.28;;;13.09;100.00
11856;BME280;5987;53.140;8.904;2023-05-23T02:04:33;101362.69;;;13.05;100.00
11856;BME280;5987;53.140;8.904;2023-05-23T02:07:38;101373.13;;;13.08;100.00
11856;BME280;5987;53.140;8.904;2023-05-23T02:10:42;101372.81;;;13.16;100.00
11856;BME280;5987;53.140;8.904;2023-05-23T02:13:45;101385.09;;;13.17;100.00
11856;BME280;5987;53.140;8.904;2023-05-23T02:16:51;101383.50;;;13.13;100.00
11856;BME280;5987;53.140;8.904;2023-05-23T02:19:55;101379.94;;;13.14;100.00
11856;BME280;5987;53.140;8.904;2023-05-23T02:22:59;101385.16;;;13.15;100.00
11856;BME280;5987;53.140;8.904;2023-05-23T02:26:02;101378.16;;;13.14;100.00
11856;BME280;5987;53.140;8.904;2023-05-23T02:29:06;101381.59;;;13.16;100.00
11856;BME280;5987;53.140;8.904;2023-05-23T02:32:11;101384.34;;;13.13;100.00
11856;BME280;5987;53.140;8.904;2023-05-23T02:35:14;101386.00;;;13.16;100.00
11856;BME280;5987;53.140;8.904;2023-05-23T02:38:18;101384.97;;;13.20;100.00
11856;BME280;5987;53.140;8.904;2023-05-23T02:41:22;101380.06;;;13.11;100.00
11856;BME280;5987;53.140;8.904;2023-05-23T02:44:25;101375.59;;;13.13;100.00
11856;BME280;5987;53.140;8.904;2023-05-23T02:47:30;101367.78;;;13.10;100.00
11856;BME280;5987;53.140;8.904;2023-05-23T02:50:34;101367.75;;;13.11;100.00
11856;BME280;5987;53.140;8.904;2023-05-23T02:53:37;101363.50;;;13.07;100.00
11856;BME280;5987;53.140;8.904;2023-05-23T02:56:41;101369.63;;;13.08;100.00
11856;BME280;5987;53.140;8.904;2023-05-23T02:59:45;101367.41;;;12.97;100.00
11856;BME280;5987;53.140;8.904;2023-05-23T03:02:50;101363.75;;;13.01;100.00
11856;BME280;5987;53.140;8.904;2023-05-23T03:05:54;101372.50;;;13.01;100.00
11856;BME280;5987;53.140;8.904;2023-05-23T03:08:57;101364.53;;;13.03;100.00
11856;BME280;5987;53.140;8.904;2023-05-23T03:12:01;101365.69;;;12.96;100.00
11856;BME280;5987;53.140;8.904;2023-05-23T03:15:06;101365.69;;;12.96;100.00
11856;BME280;5987;53.140;8.904;2023-05-23T03:18:11;101366.53;;;12.96;100.00
11856;BME280;5987;53.140;8.904;2023-05-23T03:21:14;101369.41;;;12.90;100.00
11856;BME280;5987;53.140;8.904;2023-05-23T03:24:18;101369.41;;;12.90;100.00
11856;BME280;5987;53.140;8.904;2023-05-23T03:27:21;101372.06;;;12.90;100.00
11856;BME280;5987;53.140;8.904;2023-05-23T03:30:25;101375.66;;;12.87;100.00
11856;BME280;5987;53.140;8.904;2023-05-23T03:33:30;101370.56;;;12.83;100.00
11856;BME280;5987;53.140;8.904;2023-05-23T03:36:33;101374.88;;;12.85;100.00
11856;BME280;5987;53.140;8.904;2023-05-23T03:39:40;101384.13;;;12.72;100.00
11856;BME280;5987;53.140;8.904;2023-05-23T03:42:43;101383.22;;;12.73;100.00
11856;BME280;5987;53.140;8.904;2023-05-23T03:45:47;101387.22;;;12.83;100.00
11856;BME280;5987;53.140;8.904;2023-05-23T03:48:52;101386.53;;;12.55;100.00
11856;BME280;5987;53.140;8.904;2023-05-23T03:51:56;101390.88;;;12.56;100.00
11856;BME280;5987;53.140;8.904;2023-05-23T03:54:59;101396.19;;;12.54;100.00
11856;BME280;5987;53.140;8.904;2023-05-23T03:58:03;101391.81;;;12.55;100.00
11856;BME280;5987;53.140;8.904;2023-05-23T04:01:07;101396.25;;;12.52;100.00
11856;BME280;5987;53.140;8.904;2023-05-23T04:04:13;101397.16;;;12.51;100.00
11856;BME280;5987;53.140;8.904;2023-05-23T04:07:18;101403.81;;;12.38;100.00
11856;BME280;5987;53.140;8.904;2023-05-23T04:10:22;101402.44;;;12.51;100.00
11856;BME280;5987;53.140;8.904;2023-05-23T04:13:25;101406.97;;;12.48;100.00
11856;BME280;5987;53.140;8.904;2023-05-23T04:16:29;101407.47;;;12.34;100.00
11856;BME280;5987;53.140;8.904;2023-05-23T04:19:36;101415.19;;;12.39;100.00
11856;BME280;5987;53.140;8.904;2023-05-23T04:22:39;101407.34;;;12.37;100.00
11856;BME280;5987;53.140;8.904;2023-05-23T04:25:43;101410.84;;;12.38;100.00
11856;BME280;5987;53.140;8.904;2023-05-23T04:28:47;101414.50;;;12.33;100.00
11856;BME280;5987;53.140;8.904;2023-05-23T04:31:51;101411.75;;;12.37;100.00
11856;BME280;5987;53.140;8.904;2023-05-23T04:34:57;101426.13;;;12.28;100.00
11856;BME280;5987;53.140;8.904;2023-05-23T04:38:03;101431.47;;;12.25;100.00
11856;BME280;5987;53.140;8.904;2023-05-23T04:41:07;101433.13;;;12.27;100.00
11856;BME280;5987;53.140;8.904;2023-05-23T04:44:12;101433.06;;;12.29;100.00
11856;BME280;5987;53.140;8.904;2023-05-23T04:47:16;101428.69;;;12.29;100.00
11856;BME280;5987;53.140;8.904;2023-05-23T04:50:21;101438.41;;;12.27;100.00
11856;BME280;5987;53.140;8.904;2023-05-23T04:53:25;101435.75;;;12.27;100.00
11856;BME280;5987;53.140;8.904;2023-05-23T04:56:29;101437.63;;;12.50;100.00
11856;BME280;5987;53.140;8.904;2023-05-23T04:59:32;101438.28;;;12.56;100.00
11856;BME280;5987;53.140;8.904;2023-05-23T05:02:36;101438.47;;;12.51;100.00
11856;BME280;5987;53.140;8.904;2023-05-23T05:05:41;101444.75;;;12.47;100.00
11856;BME280;5987;53.140;8.904;2023-05-23T05:08:45;101453.00;;;12.38;100.00
11856;BME280;5987;53.140;8.904;2023-05-23T05:11:48;101447.84;;;12.33;100.00
11856;BME280;5987;53.140;8.904;2023-05-23T05:14:52;101458.56;;;12.28;100.00
11856;BME280;5987;53.140;8.904;2023-05-23T05:17:56;101459.22;;;12.35;100.00
11856;BME280;5987;53.140;8.904;2023-05-23T05:21:01;101463.38;;;12.15;100.00
11856;BME280;5987;53.140;8.904;2023-05-23T05:24:04;101467.75;;;12.15;100.00
11856;BME280;5987;53.140;8.904;2023-05-23T05:27:11;101474.75;;;12.16;100.00
11856;BME280;5987;53.140;8.904;2023-05-23T05:30:15;101475.94;;;12.07;100.00
11856;BME280;5987;53.140;8.904;2023-05-23T05:33:18;101476.59;;;11.86;100.00
11856;BME280;5987;53.140;8.904;2023-05-23T05:36:26;101486.50;;;11.77;100.00
11856;BME280;5987;53.140;8.904;2023-05-23T05:39:29;101488.31;;;11.75;100.00
11856;BME280;5987;53.140;8.904;2023-05-23T05:42:33;101498.03;;;11.73;100.00
11856;BME280;5987;53.140;8.904;2023-05-23T05:45:37;101500.88;;;11.65;100.00
11856;BME280;5987;53.140;8.904;2023-05-23T05:48:41;101494.66;;;11.68;100.00
11856;BME280;5987;53.140;8.904;2023-05-23T05:51:46;101505.88;;;11.75;100.00
11856;BME280;5987;53.140;8.904;2023-05-23T05:54:49;101507.09;;;11.63;100.00
11856;BME280;5987;53.140;8.904;2023-05-23T05:57:53;101500.75;;;11.70;100.00
11856;BME280;5987;53.140;8.904;2023-05-23T06:00:57;101523.22;;;11.80;100.00
11856;BME280;5987;53.140;8.904;2023-05-23T06:04:00;101519.78;;;11.78;100.00
11856;BME280;5987;53.140;8.904;2023-05-23T06:07:06;101510.09;;;11.80;100.00
11856;BME280;5987;53.140;8.904;2023-05-23T06:10:10;101524.34;;;11.73;100.00
11856;BME280;5987;53.140;8.904;2023-05-23T06:13:15;101518.19;;;11.73;100.00
11856;BME280;5987;53.140;8.904;2023-05-23T06:16:19;101541.03;;;11.72;100.00
11856;BME280;5987;53.140;8.904;2023-05-23T06:19:22;101534.28;;;11.63;100.00
11856;BME280;5987;53.140;8.904;2023-05-23T06:22:27;101539.50;;;11.65;100.00
11856;BME280;5987;53.140;8.904;2023-05-23T06:25:31;101545.66;;;11.64;100.00
11856;BME280;5987;53.140;8.904;2023-05-23T06:28:36;101545.66;;;11.64;100.00
11856;BME280;5987;53.140;8.904;2023-05-23T06:31:40;101549.19;;;11.63;100.00
11856;BME280;5987;53.140;8.904;2023-05-23T06:34:44;101554.63;;;11.57;100.00
11856;BME280;5987;53.140;8.904;2023-05-23T06:37:49;101572.09;;;11.59;100.00
11856;BME280;5987;53.140;8.904;2023-05-23T06:40:53;101571.16;;;11.62;100.00
11856;BME280;5987;53.140;8.904;2023-05-23T06:43:56;101577.50;;;11.55;100.00
11856;BME280;5987;53.140;8.904;2023-05-23T06:47:00;101570.41;;;11.57;100.00
11856;BME280;5987;53.140;8.904;2023-05-23T06:50:05;101588.09;;;11.52;100.00
11856;BME280;5987;53.140;8.904;2023-05-23T06:53:10;101592.69;;;11.45;100.00
11856;BME280;5987;53.140;8.904;2023-05-23T06:56:14;101591.63;;;11.50;100.00
11856;BME280;5987;53.140;8.904;2023-05-23T06:59:19;101586.63;;;11.41;100.00
11856;BME280;5987;53.140;8.904;2023-05-23T07:02:22;101605.84;;;11.43;100.00
11856;BME280;5987;53.140;8.904;2023-05-23T07:05:27;101619.81;;;11.45;100.00
11856;BME280;5987;53.140;8.904;2023-05-23T07:08:32;101610.94;;;11.49;100.00
11856;BME280;5987;53.140;8.904;2023-05-23T07:11:36;101626.88;;;11.43;100.00
11856;BME280;5987;53.140;8.904;2023-05-23T07:14:40;101630.59;;;11.36;100.00
11856;BME280;5987;53.140;8.904;2023-05-23T07:17:44;101628.56;;;11.46;100.00
11856;BME280;5987;53.140;8.904;2023-05-23T07:20:48;101631.13;;;11.49;100.00
11856;BME280;5987;53.140;8.904;2023-05-23T07:23:53;101637.66;;;11.34;100.00
11856;BME280;5987;53.140;8.904;2023-05-23T07:26:57;101638.66;;;11.30;100.00
11856;BME280;5987;53.140;8.904;2023-05-23T07:30:01;101648.69;;;11.15;100.00
11856;BME280;5987;53.140;8.904;2023-05-23T07:33:06;101642.75;;;11.07;100.00
11856;BME280;5987;53.140;8.904;2023-05-23T07:36:10;101648.78;;;11.11;100.00
11856;BME280;5987;53.140;8.904;2023-05-23T07:39:15;101654.75;;;11.18;100.00
11856;BME280;5987;53.140;8.904;2023-05-23T07:42:23;101663.50;;;11.18;100.00
11856;BME280;5987;53.140;8.904;2023-05-23T07:45:26;101668.19;;;11.05;100.00
11856;BME280;5987;53.140;8.904;2023-05-23T07:48:30;101663.03;;;11.02;100.00
11856;BME280;5987;53.140;8.904;2023-05-23T07:51:34;101671.16;;;10.93;100.00
11856;BME280;5987;53.140;8.904;2023-05-23T07:54:39;101684.59;;;10.80;100.00
11856;BME280;5987;53.140;8.904;2023-05-23T07:57:43;101691.56;;;10.81;100.00
11856;BME280;5987;53.140;8.904;2023-05-23T08:00:47;101690.16;;;10.67;100.00
11856;BME280;5987;53.140;8.904;2023-05-23T08:03:54;101688.47;;;10.64;100.00
11856;BME280;5987;53.140;8.904;2023-05-23T08:06:57;101702.44;;;10.66;100.00
11856;BME280;5987;53.140;8.904;2023-05-23T08:10:09;101697.88;;;10.73;100.00
11856;BME280;5987;53.140;8.904;2023-05-23T08:13:13;101707.00;;;10.58;100.00
11856;BME280;5987;53.140;8.904;2023-05-23T08:16:17;101724.47;;;10.59;100.00
11856;BME280;5987;53.140;8.904;2023-05-23T08:19:21;101726.38;;;10.52;100.00
11856;BME280;5987;53.140;8.904;2023-05-23T08:22:25;101728.16;;;10.50;100.00
11856;BME280;5987;53.140;8.904;2023-05-23T08:25:30;101739.78;;;10.40;100.00
11856;BME280;5987;53.140;8.904;2023-05-23T08:28:34;101741.56;;;10.38;100.00
11856;BME280;5987;53.140;8.904;2023-05-23T08:31:38;101747.72;;;10.34;100.00
11856;BME280;5987;53.140;8.904;2023-05-23T08:34:41;101754.56;;;10.44;100.00
11856;BME280;5987;53.140;8.904;2023-05-23T08:37:45;101745.03;;;10.40;100.00
11856;BME280;5987;53.140;8.904;2023-05-23T08:40:51;101754.63;;;10.41;100.00
11856;BME280;5987;53.140;8.904;2023-05-23T08:43:55;101742.28;;;10.44;100.00
11856;BME280;5987;53.140;8.904;2023-05-23T08:47:03;101744.84;;;10.47;100.00
11856;BME280;5987;53.140;8.904;2023-05-23T08:50:11;101746.47;;;10.53;100.00
11856;BME280;5987;53.140;8.904;2023-05-23T08:53:16;101757.81;;;10.55;100.00
11856;BME280;5987;53.140;8.904;2023-05-23T08:56:23;101759.59;;;10.53;100.00
11856;BME280;5987;53.140;8.904;2023-05-23T08:59:32;101766.66;;;10.51;100.00
11856;BME280;5987;53.140;8.904;2023-05-23T09:02:36;101762.41;;;10.45;100.00
11856;BME280;5987;53.140;8.904;2023-05-23T09:05:41;101787.84;;;10.42;100.00
11856;BME280;5987;53.140;8.904;2023-05-23T09:08:45;101774.56;;;10.50;100.00
11856;BME280;5987;53.140;8.904;2023-05-23T09:11:51;101776.25;;;10.54;100.00
11856;BME280;5987;53.140;8.904;2023-05-23T09:14:55;101783.09;;;10.61;100.00
11856;BME280;5987;53.140;8.904;2023-05-23T09:18:00;101791.84;;;10.60;100.00
11856;BME280;5987;53.140;8.904;2023-05-23T09:21:06;101791.84;;;10.60;100.00
11856;BME280;5987;53.140;8.904;2023-05-23T09:24:10;101792.91;;;10.51;100.00
11856;BME280;5987;53.140;8.904;2023-05-23T09:27:15;101802.28;;;10.63;100.00
11856;BME280;5987;53.140;8.904;2023-05-23T09:30:19;101811.78;;;10.69;100.00
11856;BME280;5987;53.140;8.904;2023-05-23T09:33:28;101819.72;;;10.67;100.00
11856;BME280;5987;53.140;8.904;2023-05-23T09:36:32;101840.94;;;10.58;100.00
11856;BME280;5987;53.140;8.904;2023-05-23T09:39:37;101841.09;;;10.49;100.00
11856;BME280;5987;53.140;8.904;2023-05-23T09:42:44;101831.47;;;10.49;100.00
11856;BME280;5987;53.140;8.904;2023-05-23T09:45:48;101836.50;;;10.60;100.00
11856;BME280;5987;53.140;8.904;2023-05-23T09:48:52;101830.09;;;10.73;100.00
11856;BME280;5987;53.140;8.904;2023-05-23T09:51:57;101840.75;;;10.66;100.00
11856;BME280;5987;53.140;8.904;2023-05-23T09:55:02;101838.31;;;10.58;100.00
11856;BME280;5987;53.140;8.904;2023-05-23T09:58:08;101839.63;;;10.79;100.00
11856;BME280;5987;53.140;8.904;2023-05-23T10:01:13;101860.13;;;10.60;100.00
11856;BME280;5987;53.140;8.904;2023-05-23T10:04:21;101861.03;;;10.60;100.00
11856;BME280;5987;53.140;8.904;2023-05-23T10:07:27;101856.56;;;10.64;100.00
11856;BME280;5987;53.140;8.904;2023-05-23T10:10:31;101864.22;;;10.75;100.00
11856;BME280;5987;53.140;8.904;2023-05-23T10:13:39;101846.13;;;11.02;100.00
11856;BME280;5987;53.140;8.904;2023-05-23T10:16:54;101857.41;;;11.05;100.00
11856;BME280;5987;53.140;8.904;2023-05-23T10:20:09;101859.38;;;11.35;100.00
11856;BME280;5987;53.140;8.904;2023-05-23T10:23:15;101848.78;;;11.39;100.00
11856;BME280;5987;53.140;8.904;2023-05-23T10:26:20;101847.91;;;11.75;100.00
11856;BME280;5987;53.140;8.904;2023-05-23T10:29:26;101857.41;;;11.80;100.00
11856;BME280;5987;53.140;8.904;2023-05-23T10:32:31;101858.13;;;11.87;100.00
11856;BME280;5987;53.140;8.904;2023-05-23T10:35:55;101861.00;;;11.76;100.00
11856;BME280;5987;53.140;8.904;2023-05-23T10:39:11;101859.22;;;12.13;100.00
11856;BME280;5987;53.140;8.904;2023-05-23T10:42:30;101858.19;;;12.18;100.00
11856;BME280;5987;53.140;8.904;2023-05-23T10:45:41;101874.94;;;11.81;100.00
11856;BME280;5987;53.140;8.904;2023-05-23T10:48:46;101877.47;;;11.48;100.00
11856;BME280;5987;53.140;8.904;2023-05-23T10:51:50;101889.28;;;12.04;100.00
11856;BME280;5987;53.140;8.904;2023-05-23T10:54:54;101881.56;;;11.96;100.00
11856;BME280;5987;53.140;8.904;2023-05-23T10:58:10;101881.63;;;11.95;100.00
11856;BME280;5987;53.140;8.904;2023-05-23T11:01:16;101895.59;;;12.31;100.00
11856;BME280;5987;53.140;8.904;2023-05-23T11:04:25;101890.28;;;12.00;100.00
11856;BME280;5987;53.140;8.904;2023-05-23T11:07:30;101885.38;;;11.84;100.00
11856;BME280;5987;53.140;8.904;2023-05-23T11:10:57;101887.56;;;12.03;100.00
11856;BME280;5987;53.140;8.904;2023-05-23T11:14:01;101891.22;;;12.30;100.00
11856;BME280;5987;53.140;8.904;2023-05-23T11:17:17;101893.16;;;12.24;100.00
11856;BME280;5987;53.140;8.904;2023-05-23T11:20:23;101898.72;;;12.77;100.00
11856;BME280;5987;53.140;8.904;2023-05-23T11:23:39;101905.09;;;12.37;100.00
11856;BME280;5987;53.140;8.904;2023-05-23T11:26:51;101903.03;;;12.48;100.00
11856;BME280;5987;53.140;8.904;2023-05-23T11:29:59;101918.69;;;12.55;100.00
11856;BME280;5987;53.140;8.904;2023-05-23T11:33:08;101914.00;;;12.31;100.00
11856;BME280;5987;53.140;8.904;2023-05-23T11:36:15;101907.06;;;12.29;100.00
11856;BME280;5987;53.140;8.904;2023-05-23T11:39:18;101922.94;;;12.26;100.00
11856;BME280;5987;53.140;8.904;2023-05-23T11:42:23;101913.41;;;12.55;100.00
11856;BME280;5987;53.140;8.904;2023-05-23T11:45:29;101933.38;;;12.29;100.00
11856;BME280;5987;53.140;8.904;2023-05-23T11:48:34;101926.16;;;12.37;100.00
11856;BME280;5987;53.140;8.904;2023-05-23T11:51:38;101936.59;;;12.40;100.00
11856;BME280;5987;53.140;8.904;2023-05-23T11:54:42;101938.44;;;12.38;100.00
11856;BME280;5987;53.140;8.904;2023-05-23T11:57:47;101938.66;;;12.29;100.00
11856;BME280;5987;53.140;8.904;2023-05-23T12:00:50;101927.38;;;12.25;100.00
11856;BME280;5987;53.140;8.904;2023-05-23T12:03:57;101929.69;;;12.03;100.00
11856;BME280;5987;53.140;8.904;2023-05-23T12:07:05;101938.97;;;12.51;100.00
11856;BME280;5987;53.140;8.904;2023-05-23T12:10:10;101937.25;;;12.81;100.00
11856;BME280;5987;53.140;8.904;2023-05-23T12:13:13;101930.78;;;12.62;100.00
11856;BME280;5987;53.140;8.904;2023-05-23T12:16:17;101921.25;;;12.87;100.00
11856;BME280;5987;53.140;8.904;2023-05-23T12:19:22;101925.19;;;13.04;100.00
11856;BME280;5987;53.140;8.904;2023-05-23T12:22:27;101931.47;;;13.28;100.00
11856;BME280;5987;53.140;8.904;2023-05-23T12:25:39;101941.78;;;13.06;100.00
11856;BME280;5987;53.140;8.904;2023-05-23T12:28:44;101946.97;;;13.09;100.00
11856;BME280;5987;53.140;8.904;2023-05-23T12:31:49;101940.50;;;13.21;100.00
11856;BME280;5987;53.140;8.904;2023-05-23T12:34:55;101934.91;;;13.32;100.00
11856;BME280;5987;53.140;8.904;2023-05-23T12:37:59;101947.44;;;13.53;100.00
11856;BME280;5987;53.140;8.904;2023-05-23T12:41:10;101962.28;;;13.26;100.00
11856;BME280;5987;53.140;8.904;2023-05-23T12:44:15;101953.44;;;13.29;100.00
11856;BME280;5987;53.140;8.904;2023-05-23T12:47:19;101950.09;;;12.61;100.00
11856;BME280;5987;53.140;8.904;2023-05-23T12:50:24;101960.56;;;12.64;100.00
11856;BME280;5987;53.140;8.904;2023-05-23T12:53:28;101962.28;;;12.96;100.00
11856;BME280;5987;53.140;8.904;2023-05-23T12:56:32;101969.44;;;12.60;100.00
11856;BME280;5987;53.140;8.904;2023-05-23T12:59:36;101967.25;;;13.07;100.00
11856;BME280;5987;53.140;8.904;2023-05-23T13:02:40;101975.72;;;12.89;100.00
11856;BME280;5987;53.140;8.904;2023-05-23T13:05:45;101971.56;;;12.78;100.00
11856;BME280;5987;53.140;8.904;2023-05-23T13:08:48;101972.03;;;13.24;100.00
11856;BME280;5987;53.140;8.904;2023-05-23T13:11:53;101988.81;;;12.59;100.00
11856;BME280;5987;53.140;8.904;2023-05-23T13:14:56;101975.81;;;12.85;100.00
11856;BME280;5987;53.140;8.904;2023-05-23T13:18:00;101970.28;;;12.62;100.00
11856;BME280;5987;53.140;8.904;2023-05-23T13:21:05;101985.59;;;12.47;100.00
11856;BME280;5987;53.140;8.904;2023-05-23T13:24:10;101986.28;;;12.54;100.00
11856;BME280;5987;53.140;8.904;2023-05-23T13:27:13;101979.94;;;12.61;100.00
11856;BME280;5987;53.140;8.904;2023-05-23T13:30:17;101976.75;;;12.83;100.00
11856;BME280;5987;53.140;8.904;2023-05-23T13:33:21;101985.00;;;12.36;100.00
11856;BME280;5987;53.140;8.904;2023-05-23T13:36:26;101982.38;;;12.36;100.00
11856;BME280;5987;53.140;8.904;2023-05-23T13:39:30;101999.94;;;12.68;100.00
11856;BME280;5987;53.140;8.904;2023-05-23T13:42:34;101977.72;;;13.10;100.00
11856;BME280;5987;53.140;8.904;2023-05-23T13:45:38;101984.88;;;13.07;100.00
11856;BME280;5987;53.140;8.904;2023-05-23T13:48:42;101991.84;;;12.76;100.00
11856;BME280;5987;53.140;8.904;2023-05-23T13:51:47;101989.44;;;12.67;100.00
11856;BME280;5987;53.140;8.904;2023-05-23T13:54:51;102000.94;;;12.31;100.00
11856;BME280;5987;53.140;8.904;2023-05-23T13:57:54;101999.75;;;12.76;100.00
11856;BME280;5987;53.140;8.904;2023-05-23T14:00:58;101994.41;;;12.79;100.00
11856;BME280;5987;53.140;8.904;2023-05-23T14:04:02;102000.13;;;12.62;100.00
11856;BME280;5987;53.140;8.904;2023-05-23T14:07:09;102010.88;;;12.87;100.00
11856;BME280;5987;53.140;8.904;2023-05-23T14:10:13;102009.63;;;12.68;100.00
11856;BME280;5987;53.140;8.904;2023-05-23T14:13:18;102003.03;;;12.51;100.00
11856;BME280;5987;53.140;8.904;2023-05-23T14:16:24;102006.03;;;12.72;100.00
11856;BME280;5987;53.140;8.904;2023-05-23T14:19:28;102013.06;;;12.72;100.00
11856;BME280;5987;53.140;8.904;2023-05-23T14:22:34;102006.09;;;12.34;100.00
11856;BME280;5987;53.140;8.904;2023-05-23T14:25:38;102014.38;;;12.55;100.00
11856;BME280;5987;53.140;8.904;2023-05-23T14:28:42;102023.00;;;12.26;100.00
11856;BME280;5987;53.140;8.904;2023-05-23T14:31:45;102017.41;;;12.04;100.00
11856;BME280;5987;53.140;8.904;2023-05-23T14:34:49;102016.47;;;12.06;100.00
11856;BME280;5987;53.140;8.904;2023-05-23T14:37:54;102020.16;;;11.99;100.00
11856;BME280;5987;53.140;8.904;2023-05-23T14:40:57;102013.03;;;12.39;100.00
11856;BME280;5987;53.140;8.904;2023-05-23T14:44:02;102023.34;;;12.48;100.00
11856;BME280;5987;53.140;8.904;2023-05-23T14:47:06;102030.31;;;12.14;100.00
11856;BME280;5987;53.140;8.904;2023-05-23T14:50:10;102016.59;;;12.38;100.00
11856;BME280;5987;53.140;8.904;2023-05-23T14:53:15;102020.59;;;12.52;100.00
11856;BME280;5987;53.140;8.904;2023-05-23T14:56:23;102038.97;;;12.20;100.00
11856;BME280;5987;53.140;8.904;2023-05-23T14:59:28;102040.88;;;11.74;100.00
11856;BME280;5987;53.140;8.904;2023-05-23T15:02:33;102029.28;;;12.20;100.00
11856;BME280;5987;53.140;8.904;2023-05-23T15:05:36;102038.56;;;11.99;100.00
11856;BME280;5987;53.140;8.904;2023-05-23T15:08:41;102035.25;;;12.28;100.00
11856;BME280;5987;53.140;8.904;2023-05-23T15:11:45;102042.47;;;12.20;100.00
11856;BME280;5987;53.140;8.904;2023-05-23T15:14:50;102039.59;;;12.64;100.00
11856;BME280;5987;53.140;8.904;2023-05-23T15:17:54;102048.84;;;12.10;100.00
11856;BME280;5987;53.140;8.904;2023-05-23T15:20:57;102055.53;;;11.86;100.00
11856;BME280;5987;53.140;8.904;2023-05-23T15:24:03;102057.13;;;11.94;100.00
11856;BME280;5987;53.140;8.904;2023-05-23T15:27:06;102057.50;;;11.74;100.00
11856;BME280;5987;53.140;8.904;2023-05-23T15:30:22;102056.22;;;11.94;100.00
11856;BME280;5987;53.140;8.904;2023-05-23T15:33:26;102053.00;;;11.79;100.00
11856;BME280;5987;53.140;8.904;2023-05-23T15:36:29;102063.03;;;11.63;100.00
11856;BME280;5987;53.140;8.904;2023-05-23T15:39:34;102070.41;;;11.44;100.00
11856;BME280;5987;53.140;8.904;2023-05-23T15:42:38;102060.09;;;11.35;100.00
11856;BME280;5987;53.140;8.904;2023-05-23T15:45:41;102063.94;;;11.61;100.00
11856;BME280;5987;53.140;8.904;2023-05-23T15:48:45;102067.59;;;11.96;100.00
11856;BME280;5987;53.140;8.904;2023-05-23T15:51:49;102059.44;;;11.67;100.00
11856;BME280;5987;53.140;8.904;2023-05-23T15:54:55;102059.66;;;11.57;100.00
11856;BME280;5987;53.140;8.904;2023-05-23T15:57:59;102058.66;;;11.19;100.00
11856;BME280;5987;53.140;8.904;2023-05-23T16:01:03;102061.63;;;11.02;100.00
11856;BME280;5987;53.140;8.904;2023-05-23T16:04:09;102060.72;;;11.04;100.00
11856;BME280;5987;53.140;8.904;2023-05-23T16:07:12;102061.91;;;11.31;100.00
11856;BME280;5987;53.140;8.904;2023-05-23T16:10:21;102069.06;;;11.25;100.00